createdAt,value
2022-08-17T00:00:43.078Z,22.98
2022-08-17T00:03:39.153Z,22.96
2022-08-17T00:06:29.416Z,22.96
2022-08-17T00:09:18.944Z,22.91
2022-08-17T00:12:42.971Z,22.93
2022-08-17T00:15:14.034Z,22.94
2022-08-17T00:18:00.252Z,22.95
2022-08-17T00:20:46.500Z,22.93
2022-08-17T00:23:33.116Z,22.91
2022-08-17T00:26:34.733Z,22.90
2022-08-17T00:29:36.506Z,22.83
2022-08-17T00:33:12.248Z,22.85
2022-08-17T00:35:33.510Z,22.82
2022-08-17T00:38:19.668Z,22.82
2022-08-17T00:41:09.447Z,22.83
2022-08-17T00:44:01.124Z,22.82
2022-08-17T00:46:48.059Z,22.80
2022-08-17T00:49:34.198Z,22.77
2022-08-17T00:52:23.862Z,22.79
2022-08-17T00:55:10.349Z,22.76
2022-08-17T00:57:59.249Z,22.77
2022-08-17T01:00:46.311Z,22.74
2022-08-17T01:03:32.593Z,22.76
2022-08-17T01:06:19.369Z,22.74
2022-08-17T01:09:05.559Z,22.74
2022-08-17T01:11:52.459Z,22.73
2022-08-17T01:14:39.459Z,22.72
2022-08-17T01:17:27.346Z,22.72
2022-08-17T01:20:13.180Z,22.69
2022-08-17T01:23:00.321Z,22.71
2022-08-17T01:25:48.734Z,22.64
2022-08-17T01:28:54.829Z,22.57
2022-08-17T01:31:48.697Z,22.66
2022-08-17T01:34:43.402Z,22.63
2022-08-17T01:37:36.546Z,22.63
2022-08-17T01:40:40.726Z,22.57
2022-08-17T01:43:27.465Z,22.45
2022-08-17T01:46:17.102Z,22.50
2022-08-17T01:49:07.042Z,22.47
2022-08-17T01:51:53.131Z,22.44
2022-08-17T01:54:40.575Z,22.46
2022-08-17T01:57:26.484Z,22.42
2022-08-17T02:00:13.752Z,22.43
2022-08-17T02:02:59.520Z,22.42
2022-08-17T02:05:45.893Z,22.42
2022-08-17T02:08:39.180Z,22.36
2022-08-17T02:11:42.354Z,22.32
2022-08-17T02:14:28.413Z,22.30
2022-08-17T02:17:14.581Z,22.30
2022-08-17T02:20:00.731Z,22.28
2022-08-17T02:22:47.909Z,22.26
2022-08-17T02:25:34.140Z,22.29
2022-08-17T02:28:20.910Z,22.25
2022-08-17T02:31:10.006Z,22.25
2022-08-17T02:33:56.614Z,22.30
2022-08-17T02:36:54.879Z,22.28
2022-08-17T02:39:41.092Z,22.26
2022-08-17T02:42:34.016Z,22.23
2022-08-17T02:45:22.938Z,22.29
2022-08-17T02:48:08.799Z,22.28
2022-08-17T02:50:54.772Z,22.27
2022-08-17T02:53:40.816Z,22.27
2022-08-17T02:56:26.682Z,22.23
2022-08-17T02:59:12.592Z,22.29
2022-08-17T03:01:58.418Z,22.28
2022-08-17T03:04:44.384Z,22.26
2022-08-17T03:07:31.114Z,22.29
2022-08-17T03:10:17.835Z,22.28
2022-08-17T03:13:04.379Z,22.30
2022-08-17T03:15:50.712Z,22.28
2022-08-17T03:18:36.865Z,22.29
2022-08-17T03:21:23.102Z,22.30
2022-08-17T03:24:09.335Z,22.28
2022-08-17T03:26:55.157Z,22.29
2022-08-17T03:29:41.537Z,22.29
2022-08-17T03:32:27.359Z,22.31
2022-08-17T03:35:16.516Z,22.30
2022-08-17T03:38:05.578Z,22.25
2022-08-17T03:40:59.102Z,22.30
2022-08-17T03:43:45.870Z,22.25
2022-08-17T03:46:50.347Z,22.28
2022-08-17T03:50:02.130Z,22.26
2022-08-17T03:53:09.126Z,22.29
2022-08-17T03:56:14.582Z,22.25
2022-08-17T03:59:00.697Z,22.27
2022-08-17T04:01:49.619Z,22.22
2022-08-17T04:04:41.298Z,22.17
2022-08-17T04:07:30.667Z,22.15
2022-08-17T04:10:16.678Z,22.12
2022-08-17T04:13:04.470Z,22.14
2022-08-17T04:15:53.008Z,22.11
2022-08-17T04:18:38.883Z,22.11
2022-08-17T04:21:24.755Z,22.09
2022-08-17T04:24:10.633Z,22.05
2022-08-17T04:26:56.491Z,22.05
2022-08-17T04:29:54.877Z,22.03
2022-08-17T04:33:05.527Z,21.96
2022-08-17T04:36:08.472Z,21.98
2022-08-17T04:38:58.365Z,22.00
2022-08-17T04:42:03.383Z,22.01
2022-08-17T04:44:49.317Z,22.03
2022-08-17T04:47:35.816Z,22.00
2022-08-17T04:50:21.409Z,21.99
2022-08-17T04:53:07.503Z,22.02
2022-08-17T04:55:53.945Z,22.02
2022-08-17T04:58:39.944Z,22.03
2022-08-17T05:01:28.948Z,22.04
2022-08-17T05:04:33.824Z,22.01
2022-08-17T05:07:24.012Z,22.05
2022-08-17T05:10:11.633Z,22.06
2022-08-17T05:13:21.549Z,22.02
2022-08-17T05:16:09.208Z,22.01
2022-08-17T05:18:55.505Z,22.08
2022-08-17T05:21:41.298Z,22.12
2022-08-17T05:24:38.977Z,22.07
2022-08-17T05:27:29.359Z,22.13
2022-08-17T05:30:21.922Z,22.15
2022-08-17T05:33:12.259Z,22.17
2022-08-17T05:35:59.810Z,22.19
2022-08-17T05:38:45.664Z,22.22
2022-08-17T05:41:31.379Z,22.30
2022-08-17T05:44:17.284Z,22.32
2022-08-17T05:47:05.288Z,22.38
2022-08-17T05:49:57.311Z,22.34
2022-08-17T05:53:04.316Z,22.45
2022-08-17T05:56:29.822Z,22.45
2022-08-17T05:59:42.593Z,22.48
2022-08-17T06:02:47.959Z,22.52
2022-08-17T06:05:53.211Z,22.59
2022-08-17T06:08:42.436Z,22.63
2022-08-17T06:11:44.291Z,22.62
2022-08-17T06:14:53.823Z,22.67
2022-08-17T06:17:40.367Z,22.71
2022-08-17T06:20:32.383Z,22.79
2022-08-17T06:23:28.148Z,22.82
2022-08-17T06:26:30.508Z,22.85
2022-08-17T06:29:39.908Z,22.89
2022-08-17T06:32:25.912Z,22.94
2022-08-17T06:35:15.389Z,23.00
2022-08-17T06:38:37.461Z,23.04
2022-08-17T06:41:38.219Z,23.09
2022-08-17T06:44:57.576Z,23.10
2022-08-17T06:47:53.511Z,23.16
2022-08-17T06:50:44.593Z,23.19
2022-08-17T06:53:41.083Z,23.17
2022-08-17T06:56:53.206Z,23.21
2022-08-17T07:00:07.301Z,23.29
2022-08-17T07:03:03.065Z,23.27
2022-08-17T07:05:50.993Z,23.30
2022-08-17T07:08:58.215Z,23.37
2022-08-17T07:11:59.438Z,23.40
2022-08-17T07:14:52.062Z,23.44
2022-08-17T07:17:47.803Z,23.51
2022-08-17T07:20:35.270Z,23.55
2022-08-17T07:23:40.213Z,23.58
2022-08-17T07:26:25.989Z,23.60
2022-08-17T07:29:16.915Z,23.63
2022-08-17T07:32:04.424Z,23.67
2022-08-17T07:35:18.466Z,23.69
2022-08-17T07:38:26.781Z,23.69
2022-08-17T07:41:14.304Z,23.74
2022-08-17T07:44:00.343Z,23.79
2022-08-17T07:47:12.326Z,23.85
2022-08-17T07:49:58.327Z,23.84
2022-08-17T07:52:50.770Z,23.92
2022-08-17T07:55:45.339Z,23.97
2022-08-17T07:58:31.166Z,23.99
2022-08-17T08:01:18.400Z,24.04
2022-08-17T08:07:59.374Z,24.07
2022-08-17T08:11:02.655Z,24.09
2022-08-17T08:13:49.968Z,24.18
2022-08-17T08:16:36.807Z,24.19
2022-08-17T08:19:25.127Z,24.24
2022-08-17T08:22:26.286Z,24.28
2022-08-17T08:25:19.545Z,24.32
2022-08-17T08:28:34.198Z,24.38
2022-08-17T08:31:29.448Z,24.45
2022-08-17T08:34:53.395Z,24.51
2022-08-17T08:37:50.118Z,24.59
2022-08-17T08:40:45.148Z,24.64
2022-08-17T08:43:36.804Z,24.67
2022-08-17T08:46:38.111Z,24.63
2022-08-17T08:50:05.170Z,24.62
2022-08-17T08:53:13.062Z,24.63
2022-08-17T08:56:07.401Z,24.65
2022-08-17T08:59:34.806Z,24.70
2022-08-17T09:02:51.099Z,24.76
2022-08-17T09:06:04.650Z,24.88
2022-08-17T09:09:37.264Z,24.96
2022-08-17T09:12:45.436Z,25.07
2022-08-17T09:15:47.794Z,25.06
2022-08-17T09:19:02.914Z,25.25
2022-08-17T09:21:49.256Z,25.33
2022-08-17T09:24:41.815Z,25.42
2022-08-17T09:27:50.325Z,25.47
2022-08-17T09:30:46.089Z,25.54
2022-08-17T09:33:35.586Z,25.55
2022-08-17T09:36:30.364Z,25.66
2022-08-17T09:39:20.007Z,25.69
2022-08-17T09:42:31.067Z,25.72
2022-08-17T09:45:40.985Z,25.70
2022-08-17T09:49:07.505Z,25.56
2022-08-17T09:52:07.920Z,25.38
2022-08-17T09:54:56.002Z,25.31
2022-08-17T09:58:30.947Z,25.17
2022-08-17T10:01:36.230Z,25.11
2022-08-17T10:04:29.562Z,25.16
2022-08-17T10:07:23.155Z,25.22
2022-08-17T10:10:15.053Z,25.29
2022-08-17T10:13:28.629Z,25.34
2022-08-17T10:16:20.619Z,25.47
2022-08-17T10:19:50.822Z,25.57
2022-08-17T10:23:10.173Z,25.65
2022-08-17T10:26:15.620Z,25.73
2022-08-17T10:29:24.713Z,25.83
2022-08-17T10:32:24.289Z,25.93
2022-08-17T10:35:34.166Z,26.02
2022-08-17T10:38:50.439Z,26.06
2022-08-17T10:41:45.227Z,26.14
2022-08-17T10:44:52.268Z,26.20
2022-08-17T10:48:05.173Z,26.29
2022-08-17T10:51:00.102Z,26.38
2022-08-17T10:53:46.467Z,26.46
2022-08-17T10:56:51.052Z,26.49
2022-08-17T10:59:37.147Z,26.58
2022-08-17T11:02:27.543Z,26.57
2022-08-17T11:05:42.958Z,26.66
2022-08-17T11:08:57.563Z,26.72
2022-08-17T11:11:51.076Z,26.76
2022-08-17T11:14:50.615Z,26.82
2022-08-17T11:18:07.506Z,26.89
2022-08-17T11:21:39.324Z,26.96
2022-08-17T11:24:30.658Z,27.03
2022-08-17T11:27:33.620Z,27.11
2022-08-17T11:30:53.026Z,27.21
2022-08-17T11:33:42.420Z,27.31
2022-08-17T11:36:56.550Z,27.39
2022-08-17T11:40:06.086Z,27.54
2022-08-17T11:43:44.430Z,27.70
2022-08-17T11:46:58.319Z,27.95
2022-08-17T11:50:09.332Z,28.17
2022-08-17T11:52:55.830Z,28.39
2022-08-17T11:55:44.941Z,28.67
2022-08-17T11:58:30.935Z,28.89
2022-08-17T12:01:23.412Z,29.11
2022-08-17T12:04:29.480Z,29.25
2022-08-17T12:07:23.245Z,29.36
2022-08-17T12:10:12.354Z,29.39
2022-08-17T12:13:01.652Z,29.46
2022-08-17T12:15:50.025Z,29.53
2022-08-17T12:18:40.355Z,29.57
2022-08-17T12:21:29.881Z,29.57
2022-08-17T12:24:21.483Z,29.49
2022-08-17T12:27:10.461Z,29.40
2022-08-17T12:30:00.955Z,29.27
2022-08-17T12:32:48.838Z,29.12
2022-08-17T12:35:38.830Z,28.96
2022-08-17T12:38:32.546Z,28.79
2022-08-17T12:41:38.902Z,28.71
2022-08-17T12:44:56.417Z,28.62
2022-08-17T12:48:22.696Z,28.53
2022-08-17T12:51:09.829Z,28.46
2022-08-17T12:53:56.012Z,28.44
2022-08-17T12:56:46.096Z,28.47
2022-08-17T12:59:34.001Z,28.53
2022-08-17T13:02:37.487Z,28.61
2022-08-17T13:05:27.937Z,28.73
2022-08-17T13:08:16.803Z,28.83
2022-08-17T13:11:06.338Z,28.80
2022-08-17T13:13:55.251Z,28.81
2022-08-17T13:16:49.450Z,28.75
2022-08-17T13:19:48.861Z,28.72
2022-08-17T13:22:34.981Z,28.66
2022-08-17T13:25:21.235Z,28.59
2022-08-17T13:28:18.233Z,28.56
2022-08-17T13:31:26.387Z,28.57
2022-08-17T13:34:26.938Z,28.65
2022-08-17T13:37:30.816Z,28.75
2022-08-17T13:40:19.697Z,28.94
2022-08-17T13:43:05.704Z,28.97
2022-08-17T13:45:52.780Z,29.27
2022-08-17T13:48:39.337Z,29.40
2022-08-17T13:51:30.612Z,29.71
2022-08-17T13:55:38.383Z,30.28
2022-08-17T13:59:53.346Z,31.09
2022-08-17T14:02:41.170Z,31.81
2022-08-17T14:05:27.761Z,32.34
2022-08-17T14:08:20.286Z,32.88
2022-08-17T14:11:11.456Z,33.35
2022-08-17T14:13:58.781Z,33.69
2022-08-17T14:16:44.918Z,34.13
2022-08-17T14:19:31.300Z,34.48
2022-08-17T14:22:49.645Z,34.86
2022-08-17T14:25:35.712Z,35.21
2022-08-17T14:28:21.770Z,35.50
2022-08-17T14:31:08.487Z,35.91
2022-08-17T14:33:54.135Z,36.23
2022-08-17T14:36:48.199Z,36.64
2022-08-17T14:39:38.385Z,37.08
2022-08-17T14:42:28.133Z,37.53
2022-08-17T14:45:30.269Z,38.05
2022-08-17T14:48:20.333Z,38.54
2022-08-17T14:51:06.983Z,39.03
2022-08-17T14:53:53.268Z,39.48
2022-08-17T14:56:39.319Z,39.93
2022-08-17T14:59:25.478Z,40.31
2022-08-17T15:02:11.745Z,40.49
2022-08-17T15:05:07.359Z,40.87
2022-08-17T15:07:53.822Z,40.92
2022-08-17T15:10:39.737Z,41.12
2022-08-17T15:13:27.350Z,41.35
2022-08-17T15:16:13.903Z,41.47
2022-08-17T15:18:59.939Z,41.65
2022-08-17T15:21:47.071Z,41.86
2022-08-17T15:24:33.826Z,42.04
2022-08-17T15:27:28.275Z,42.18
2022-08-17T15:30:20.180Z,42.32
2022-08-17T15:33:06.239Z,42.34
2022-08-17T15:35:53.617Z,42.42
2022-08-17T15:38:39.793Z,42.41
2022-08-17T15:41:28.130Z,42.34
2022-08-17T15:44:14.067Z,42.17
2022-08-17T15:46:59.765Z,41.90
2022-08-17T15:49:46.524Z,41.51
2022-08-17T15:52:38.038Z,40.99
2022-08-17T15:55:26.911Z,40.44
2022-08-17T15:58:12.914Z,39.82
2022-08-17T16:01:15.136Z,39.23
2022-08-17T16:04:26.754Z,38.62
2022-08-17T16:07:26.833Z,37.98
2022-08-17T16:10:18.193Z,37.33
2022-08-17T16:13:05.151Z,36.82
2022-08-17T16:16:03.786Z,36.34
2022-08-17T16:18:54.689Z,35.87
2022-08-17T16:21:48.696Z,35.43
2022-08-17T16:24:37.643Z,35.03
2022-08-17T16:27:23.371Z,34.72
2022-08-17T16:30:16.457Z,34.42
2022-08-17T16:33:03.632Z,34.09
2022-08-17T16:35:49.892Z,33.78
2022-08-17T16:38:36.441Z,33.52
2022-08-17T16:41:41.568Z,33.25
2022-08-17T16:44:31.812Z,33.01
2022-08-17T16:47:19.473Z,32.82
2022-08-17T16:50:07.313Z,32.61
2022-08-17T16:52:53.439Z,32.41
2022-08-17T16:55:39.515Z,32.26
2022-08-17T16:58:25.636Z,32.08
2022-08-17T17:01:12.859Z,31.96
2022-08-17T17:04:04.389Z,31.80
2022-08-17T17:07:05.094Z,31.69
2022-08-17T17:09:55.401Z,31.51
2022-08-17T17:13:02.971Z,31.42
2022-08-17T17:16:05.197Z,31.28
2022-08-17T17:19:34.297Z,31.18
2022-08-17T17:22:29.668Z,31.03
2022-08-17T18:11:25.567Z,29.26
2022-08-17T18:14:46.825Z,29.22
2022-08-17T18:17:34.171Z,29.23
2022-08-17T18:20:21.245Z,29.21
2022-08-17T18:23:31.597Z,29.16
2022-08-17T18:27:08.607Z,29.10
2022-08-17T18:29:58.256Z,29.05
2022-08-17T18:32:46.743Z,29.00
2022-08-17T18:35:35.069Z,28.95
2022-08-17T18:38:31.053Z,28.88
2022-08-17T18:41:30.612Z,28.82
2022-08-17T18:44:25.363Z,28.75
2022-08-17T18:47:22.345Z,28.69
2022-08-17T18:50:29.096Z,28.63
2022-08-17T18:53:37.741Z,28.60
2022-08-17T18:56:26.928Z,28.55
2022-08-17T18:59:21.914Z,28.47
2022-08-17T19:02:40.380Z,28.42
2022-08-17T19:05:31.687Z,28.36
2022-08-17T19:08:24.107Z,28.31
2022-08-17T19:11:12.652Z,28.22
2022-08-17T19:14:06.986Z,28.17
2022-08-17T19:17:00.176Z,28.13
2022-08-17T19:20:15.089Z,28.04
2022-08-17T19:23:16.873Z,28.01
2022-08-17T19:26:06.379Z,27.97
2022-08-17T19:29:20.018Z,27.91
2022-08-17T19:32:10.552Z,27.86
2022-08-17T19:34:57.233Z,27.82
2022-08-17T19:38:04.161Z,27.75
2022-08-17T19:41:07.569Z,27.69
2022-08-17T19:44:36.857Z,27.61
2022-08-17T19:47:53.375Z,27.54
2022-08-17T19:50:47.383Z,27.49
2022-08-17T19:54:05.350Z,27.43
2022-08-17T19:57:02.898Z,27.39
2022-08-17T20:00:02.691Z,27.32
2022-08-17T20:03:16.947Z,27.34
2022-08-17T20:06:14.783Z,27.22
2022-08-17T20:09:15.060Z,27.20
2022-08-17T20:12:07.765Z,27.13
2022-08-17T20:14:57.396Z,27.15
2022-08-17T20:17:45.516Z,27.10
2022-08-17T20:20:46.851Z,27.07
2022-08-17T20:24:05.865Z,27.02
2022-08-17T20:27:12.575Z,27.03
2022-08-17T20:30:12.941Z,26.96
2022-08-17T20:33:01.389Z,26.91
2022-08-17T20:36:21.080Z,26.90
2022-08-17T20:39:31.285Z,26.85
2022-08-17T20:42:20.912Z,26.87
2022-08-17T20:45:24.541Z,26.80
2022-08-17T20:48:36.316Z,26.75
2022-08-17T20:51:23.939Z,26.76
2022-08-17T20:54:19.074Z,26.72
2022-08-17T20:57:13.804Z,26.65
2022-08-17T21:00:18.333Z,26.69
2022-08-17T21:03:50.695Z,26.64
2022-08-17T21:07:17.585Z,26.59
2022-08-17T21:10:09.755Z,26.59
2022-08-17T21:13:08.232Z,26.55
2022-08-17T21:15:57.440Z,26.51
2022-08-17T21:19:19.750Z,26.41
2022-08-17T21:22:21.516Z,26.40
2022-08-17T21:25:48.374Z,26.33
2022-08-17T21:29:00.861Z,26.29
2022-08-17T21:32:06.534Z,26.29
2022-08-17T21:35:24.166Z,26.20
2022-08-17T21:38:13.796Z,26.15
2022-08-17T21:41:01.465Z,26.14
2022-08-17T21:43:50.363Z,26.05
2022-08-17T21:46:40.538Z,26.04
2022-08-17T21:49:28.095Z,25.98
2022-08-17T21:52:17.739Z,26.00
2022-08-17T21:55:13.065Z,25.93
2022-08-17T21:58:13.676Z,25.92
2022-08-17T22:01:35.697Z,25.87
2022-08-17T22:04:37.906Z,25.84
2022-08-17T22:07:53.341Z,25.82
2022-08-17T22:10:44.703Z,25.85
2022-08-17T22:13:32.765Z,25.82
2022-08-17T22:16:29.400Z,25.77
2022-08-17T22:19:17.906Z,25.77
2022-08-17T22:22:10.504Z,25.71
2022-08-17T22:25:00.133Z,25.73
2022-08-17T22:28:04.504Z,25.73
2022-08-17T22:31:00.765Z,25.65
2022-08-17T22:33:49.101Z,25.66
2022-08-17T22:36:37.604Z,25.58
2022-08-17T22:39:23.491Z,25.60
2022-08-17T22:42:14.273Z,25.53
2022-08-17T22:45:00.415Z,25.59
2022-08-17T22:47:49.386Z,25.56
2022-08-17T22:50:35.410Z,25.48
2022-08-17T22:53:42.322Z,25.50
2022-08-17T22:56:49.101Z,25.50
2022-08-17T22:59:55.678Z,25.43
2022-08-17T23:03:18.460Z,25.38
2022-08-17T23:06:08.898Z,25.34
2022-08-17T23:08:56.342Z,25.29
2022-08-17T23:11:49.863Z,25.30
2022-08-17T23:14:42.482Z,25.28
2022-08-17T23:17:35.105Z,25.27
2022-08-17T23:20:23.706Z,25.22
2022-08-17T23:23:14.315Z,25.15
2022-08-17T23:26:01.049Z,25.04
2022-08-17T23:28:47.413Z,25.01
2022-08-17T23:31:37.142Z,24.96
2022-08-17T23:34:24.273Z,24.95
2022-08-17T23:37:11.809Z,24.92
2022-08-17T23:39:57.627Z,24.88
2022-08-17T23:42:46.179Z,24.86
2022-08-17T23:45:33.306Z,24.86
2022-08-17T23:48:28.619Z,24.87
2022-08-17T23:51:29.352Z,24.83
2022-08-17T23:54:31.489Z,24.81
2022-08-17T23:57:20.533Z,24.79
